Time;durP1;ratioP1;P1;durP2;ratioP2;P2;SDS_P1;SDS_P2;PMS_P1;PMS_P2;Temp;Humidity;BMP_temperature;BMP_pressure;BME280_temperature;BME280_humidity;BME280_pressure;Samples;Min_cycle;Max_cycle;Signal;HPM_P1;HPM_P2
2023/02/12 11:01:34;;;;;;;;;;;;;;;9.88;65.59;100182.41;6039966;23;20991;-61
2023/02/12 11:04:00;;;;;;;;;;;;;;;9.80;66.72;100180.94;4955411;29;19993;-63
2023/02/12 11:06:29;;;;;;;;;;;;;;;9.70;66.90;100183.91;4954060;29;19930;-63
2023/02/12 11:08:54;;;;;;;;;;;;;;;9.74;66.77;100188.13;4958937;29;20314;-62
2023/02/12 11:11:21;;;;;;;;;;;;;;;9.57;66.61;100182.59;4959107;29;19918;-62
2023/02/12 11:13:52;;;;;;;;;;;;;;;9.51;67.39;100186.25;4938073;29;19919;-63
2023/02/12 11:16:25;;;;;;;;;;;;;;;9.57;67.27;100182.59;4929199;29;19993;-63
2023/02/12 11:18:56;;;;;;;;;;;;;;;9.60;67.57;100181.63;4936591;29;19919;-62
2023/02/12 11:21:21;;;;;;;;;;;;;;;9.56;67.11;100180.84;4936830;29;20346;-62
2023/02/12 11:23:46;;;;;;;;;;;;;;;9.60;67.57;100174.63;4938968;29;19927;-62
2023/02/12 11:26:18;;;;;;;;;;;;;;;9.62;67.79;100179.81;4935003;29;19922;-63
2023/02/12 11:28:51;;;;;;;;;;;;;;;9.63;67.76;100177.13;4939383;29;19925;-62
2023/02/12 11:31:21;;;;;;;;;;;;;;;9.63;67.34;100171.03;4938592;29;19922;-63
2023/02/12 11:33:47;;;;;;;;;;;;;;;9.59;67.28;100175.53;4939816;29;19919;-63
2023/02/12 11:36:12;;;;;;;;;;;;;;;9.59;67.39;100180.75;4935949;29;19942;-63
2023/02/12 11:38:46;;;;;;;;;;;;;;;9.60;67.61;100185.13;4941266;29;20005;-63
2023/02/12 11:41:20;;;;;;;;;;;;;;;9.59;67.51;100186.00;4939384;29;19922;-62
2023/02/12 11:43:46;;;;;;;;;;;;;;;9.50;67.15;100183.72;4932623;29;19919;-63
2023/02/12 11:46:11;;;;;;;;;;;;;;;9.39;67.51;100183.16;4937428;29;20279;-63
2023/02/12 11:48:39;;;;;;;;;;;;;;;9.30;67.51;100188.72;4936921;29;19954;-62
2023/02/12 11:51:07;;;;;;;;;;;;;;;9.22;68.54;100175.84;4939467;29;20378;-63
2023/02/12 11:53:34;;;;;;;;;;;;;;;9.17;68.78;100176.00;4938737;29;20422;-62
2023/02/12 11:56:04;;;;;;;;;;;;;;;9.20;69.15;100169.81;4936152;29;20671;-61
2023/02/12 11:58:30;;;;;;;;;;;;;;;9.30;68.90;100167.78;4934523;29;19919;-62
2023/02/12 12:01:01;;;;;;;;;;;;;;;9.34;68.64;100169.38;4938923;29;19919;-62
2023/02/12 12:03:27;;;;;;;;;;;;;;;9.29;68.34;100166.94;4937365;29;19919;-61
2023/02/12 12:06:00;;;;;;;;;;;;;;;9.18;68.16;100172.47;4936890;29;19923;-60
2023/02/12 12:08:30;;;;;;;;;;;;;;;8.99;69.00;100169.59;4937958;29;19953;-61
2023/02/12 12:10:56;;;;;;;;;;;;;;;8.96;69.69;100168.81;4931610;29;19942;-60
2023/02/12 12:13:23;;;;;;;;;;;;;;;8.94;69.72;100166.25;4935524;29;20375;-61
2023/02/12 12:21:29;;;;;;;;;;;;;;;8.93;69.61;100166.31;4930313;29;19926;-61
2023/02/12 12:23:58;;;;;;;;;;;;;;;8.92;69.91;100164.59;4933631;29;19919;-63
2023/02/12 12:26:27;;;;;;;;;;;;;;;8.92;69.45;100168.06;4937494;29;19915;-62
2023/02/12 12:29:05;;;;;;;;;;;;;;;8.94;69.63;100168.00;4929377;29;20380;-61
2023/02/12 12:31:49;;;;;;;;;;;;;;;9.00;69.46;100166.06;4934943;29;20271;-62
2023/02/12 12:34:23;;;;;;;;;;;;;;;9.06;69.23;100161.56;4948494;29;20005;-61
2023/02/12 12:36:58;;;;;;;;;;;;;;;9.14;69.26;100165.63;4935285;29;19961;-60
2023/02/12 12:39:26;;;;;;;;;;;;;;;9.20;68.75;100167.22;4934768;29;20055;-61
2023/02/12 12:42:10;;;;;;;;;;;;;;;9.32;68.90;100163.31;4936216;29;19919;-61
2023/02/12 12:44:53;;;;;;;;;;;;;;;9.35;67.97;100168.47;4929705;29;20010;-62
2023/02/12 12:47:19;;;;;;;;;;;;;;;9.46;68.17;100163.72;4936828;29;19970;-62
2023/02/12 12:49:47;;;;;;;;;;;;;;;9.43;67.44;100161.25;4929671;29;19919;-62
2023/02/12 12:52:19;;;;;;;;;;;;;;;9.42;67.62;100156.88;4929760;29;19945;-61
2023/02/12 12:54:44;;;;;;;;;;;;;;;9.41;67.67;100156.03;4926783;29;19969;-61
2023/02/12 12:57:17;;;;;;;;;;;;;;;9.51;67.56;100151.34;4933996;29;19950;-61
2023/02/12 13:00:01;;;;;;;;;;;;;;;9.62;66.95;100143.97;4929735;29;19919;-61
2023/02/12 13:02:45;;;;;;;;;;;;;;;9.81;66.76;100132.88;4933006;29;19923;-61
2023/02/12 13:05:28;;;;;;;;;;;;;;;9.81;65.94;100140.75;4927735;29;19919;-61
2023/02/12 13:07:57;;;;;;;;;;;;;;;9.78;66.14;100136.47;4933589;29;19919;-61
2023/02/12 13:10:26;;;;;;;;;;;;;;;9.55;67.33;100139.84;4931047;29;20040;-61
2023/02/12 13:12:51;;;;;;;;;;;;;;;9.67;66.29;100149.06;4933136;29;19922;-61
2023/02/12 13:15:18;;;;;;;;;;;;;;;9.78;65.93;100138.22;4930992;29;20025;-61
2023/02/12 13:17:52;;;;;;;;;;;;;;;9.97;65.84;100141.91;4933538;29;19954;-62
2023/02/12 13:20:33;;;;;;;;;;;;;;;10.17;65.75;100136.81;4925407;29;20132;-61
2023/02/12 13:22:59;;;;;;;;;;;;;;;10.35;64.83;100137.94;4934245;29;20370;-61
2023/02/12 13:25:29;;;;;;;;;;;;;;;10.39;64.28;100136.03;4931506;29;19918;-60
2023/02/12 13:27:55;;;;;;;;;;;;;;;10.96;67.67;100136.50;4933001;29;19926;-61
2023/02/12 13:30:24;;;;;;;;;;;;;;;11.94;62.09;100138.59;4931065;29;19919;-61
2023/02/12 13:32:53;;;;;;;;;;;;;;;12.55;58.32;100135.84;4929582;29;19981;-61
2023/02/12 13:35:19;;;;;;;;;;;;;;;12.33;58.11;100140.38;4938763;29;19953;-61
2023/02/12 13:37:45;;;;;;;;;;;;;;;12.21;57.67;100146.19;4939422;29;20370;-61
2023/02/12 13:40:15;;;;;;;;;;;;;;;12.06;57.97;100142.47;4932145;29;19926;-61
2023/02/12 13:42:59;;;;;;;;;;;;;;;11.50;59.29;100143.94;4931348;29;19926;-61
2023/02/12 13:45:30;;;;;;;;;;;;;;;11.47;59.35;100132.69;4931976;29;19919;-61
2023/02/12 13:47:55;;;;;;;;;;;;;;;11.43;59.98;100139.84;4934319;29;19915;-61
2023/02/12 13:50:39;;;;;;;;;;;;;;;11.32;60.15;100140.31;4933534;29;19915;-61
2023/02/12 13:53:23;;;;;;;;;;;;;;;11.00;60.27;100146.81;4927883;29;19935;-61
2023/02/12 13:56:00;;;;;;;;;;;;;;;11.03;62.00;100141.44;4936761;29;20041;-61
2023/02/12 13:58:36;;;;;;;;;;;;;;;11.37;61.24;100137.47;4936398;29;20294;-60
2023/02/12 14:01:02;;;;;;;;;;;;;;;11.84;60.35;100138.13;4930089;29;20407;-60
2023/02/12 14:03:27;;;;;;;;;;;;;;;11.63;59.56;100139.88;4931827;29;20005;-60
2023/02/12 14:06:12;;;;;;;;;;;;;;;11.43;59.83;100137.22;4927375;29;19933;-62
2023/02/12 14:08:38;;;;;;;;;;;;;;;11.41;60.01;100139.91;4928864;29;19930;-63
2023/02/12 14:11:06;;;;;;;;;;;;;;;11.51;60.42;100134.28;4929697;29;19956;-64
2023/02/12 14:13:33;;;;;;;;;;;;;;;11.58;59.93;100136.56;4931165;29;20383;-62
2023/02/12 14:15:58;;;;;;;;;;;;;;;11.43;58.86;100136.38;4923637;29;20005;-64
2023/02/12 14:18:27;;;;;;;;;;;;;;;11.26;59.47;100129.19;4931038;29;20010;-62
2023/02/12 14:21:10;;;;;;;;;;;;;;;11.21;59.89;100125.88;4930730;29;19919;-62
2023/02/12 14:23:36;;;;;;;;;;;;;;;11.04;60.17;100130.03;4934259;29;20343;-62
2023/02/12 14:26:04;;;;;;;;;;;;;;;11.14;60.26;100131.38;4930947;29;19919;-63
2023/02/12 14:28:30;;;;;;;;;;;;;;;11.10;60.51;100132.41;4929895;29;19923;-63
2023/02/12 14:31:13;;;;;;;;;;;;;;;11.18;60.74;100126.84;4933470;29;19915;-63
2023/02/12 14:33:39;;;;;;;;;;;;;;;11.30;60.39;100115.84;4928787;29;20013;-63
2023/02/12 14:36:13;;;;;;;;;;;;;;;11.39;59.53;100114.63;4930140;29;20006;-63
2023/02/12 14:38:38;;;;;;;;;;;;;;;11.45;59.64;100119.59;4929401;29;19919;-62
2023/02/12 14:41:37;;;;;;;;;;;;;;;11.48;59.22;100114.22;4932523;29;19930;-64
2023/02/12 14:44:14;;;;;;;;;;;;;;;11.32;59.24;100111.41;4930042;29;19923;-63
2023/02/12 14:46:44;;;;;;;;;;;;;;;11.36;59.04;100118.22;4931367;29;19925;-63
2023/02/12 14:49:20;;;;;;;;;;;;;;;11.71;58.39;100117.66;4932302;29;19958;-62
2023/02/12 14:51:57;;;;;;;;;;;;;;;11.61;58.46;100115.41;4931656;29;19927;-62
2023/02/12 14:54:30;;;;;;;;;;;;;;;11.83;58.24;100104.81;4932732;29;19919;-62
2023/02/12 14:56:55;;;;;;;;;;;;;;;12.03;57.43;100111.88;4928257;29;19925;-62
2023/02/12 14:59:22;;;;;;;;;;;;;;;12.28;56.94;100105.50;4931560;29;19918;-63
2023/02/12 15:01:47;;;;;;;;;;;;;;;12.47;56.37;100093.22;4923873;29;19923;-63
2023/02/12 15:04:16;;;;;;;;;;;;;;;12.53;55.86;100103.47;4931795;29;19938;-62
2023/02/12 15:06:49;;;;;;;;;;;;;;;12.62;55.59;100098.69;4930715;29;20279;-62
2023/02/12 15:09:25;;;;;;;;;;;;;;;12.67;54.73;100104.63;4925249;29;20011;-62
2023/02/12 15:11:53;;;;;;;;;;;;;;;12.42;55.12;100103.13;4930272;29;20001;-62
2023/02/12 15:14:19;;;;;;;;;;;;;;;12.21;56.40;100094.41;4931747;29;20041;-62
2023/02/12 15:16:46;;;;;;;;;;;;;;;12.34;55.83;100095.56;4930953;29;19918;-62
2023/02/12 15:19:41;;;;;;;;;;;;;;;12.40;55.97;100098.84;4924804;29;19923;-63
2023/02/12 15:22:18;;;;;;;;;;;;;;;12.35;55.74;100099.03;4917512;29;19966;-63
2023/02/12 15:24:45;;;;;;;;;;;;;;;12.34;55.96;100094.72;4933334;29;20397;-66
2023/02/12 15:27:10;;;;;;;;;;;;;;;12.38;56.37;100101.53;4930809;29;19919;-62
2023/02/12 15:29:42;;;;;;;;;;;;;;;12.40;55.83;100093.59;4926142;29;19939;-63
2023/02/12 15:32:08;;;;;;;;;;;;;;;12.35;55.97;100096.41;4945300;29;20383;-62
2023/02/12 15:34:37;;;;;;;;;;;;;;;12.30;56.81;100094.00;4932200;29;19918;-63
2023/02/12 15:37:02;;;;;;;;;;;;;;;12.23;56.85;100089.94;4915229;29;19918;-62
2023/02/12 15:39:31;;;;;;;;;;;;;;;12.09;57.19;100087.94;4930145;29;19919;-62
2023/02/12 15:41:56;;;;;;;;;;;;;;;11.95;57.28;100090.34;4927983;29;19919;-63
2023/02/12 15:44:25;;;;;;;;;;;;;;;11.78;58.67;100087.56;4934158;29;19998;-63
2023/02/12 15:46:54;;;;;;;;;;;;;;;11.65;58.59;100090.72;4936153;29;20017;-63
2023/02/12 15:49:21;;;;;;;;;;;;;;;11.49;59.04;100087.03;4929920;29;19930;-62
2023/02/12 15:51:46;;;;;;;;;;;;;;;11.27;59.24;100094.09;4932841;29;20022;-63
2023/02/12 15:54:11;;;;;;;;;;;;;;;11.14;60.78;100088.50;4934181;29;20014;-63
2023/02/12 15:56:38;;;;;;;;;;;;;;;10.91;61.34;100078.94;4932726;29;19969;-62
2023/02/12 15:59:03;;;;;;;;;;;;;;;10.74;61.38;100078.78;4930520;29;19946;-62
2023/02/12 16:01:29;;;;;;;;;;;;;;;10.62;61.71;100073.06;4929676;29;20418;-61
2023/02/12 16:04:04;;;;;;;;;;;;;;;10.44;62.56;100077.25;4929908;29;19974;-63
2023/02/12 16:06:33;;;;;;;;;;;;;;;10.26;63.02;100079.75;4951134;29;19930;-63
2023/02/12 16:09:02;;;;;;;;;;;;;;;10.08;63.32;100076.84;4929822;29;19923;-64
2023/02/12 16:11:28;;;;;;;;;;;;;;;9.89;63.82;100078.44;4930239;29;19923;-62
2023/02/12 16:14:00;;;;;;;;;;;;;;;9.71;64.48;100072.94;4930147;29;19927;-62
2023/02/12 16:16:29;;;;;;;;;;;;;;;9.54;65.40;100075.28;4935802;29;19993;-62
2023/02/12 16:19:13;;;;;;;;;;;;;;;9.37;65.81;100073.25;4932195;29;19918;-62
2023/02/12 16:21:38;;;;;;;;;;;;;;;9.19;66.51;100082.56;4935206;29;19924;-62
2023/02/12 16:24:04;;;;;;;;;;;;;;;9.01;67.00;100081.38;4931208;29;19918;-62
2023/02/12 16:26:29;;;;;;;;;;;;;;;8.85;67.66;100085.44;4933995;29;20013;-63
2023/02/12 16:28:55;;;;;;;;;;;;;;;8.69;67.98;100086.81;4933454;29;19926;-62
2023/02/12 16:31:20;;;;;;;;;;;;;;;8.55;68.86;100087.22;4932149;29;20017;-61
2023/02/12 16:33:52;;;;;;;;;;;;;;;8.39;69.56;100093.81;4928083;29;19998;-63
2023/02/12 16:36:23;;;;;;;;;;;;;;;8.25;69.75;100087.19;4935038;29;20013;-61
2023/02/12 16:38:49;;;;;;;;;;;;;;;8.12;70.81;100095.44;4934409;29;19919;-62
2023/02/12 16:41:17;;;;;;;;;;;;;;;8.02;70.22;100097.47;4928140;29;20437;-62
2023/02/12 16:43:43;;;;;;;;;;;;;;;7.90;70.35;100097.78;4933200;29;19918;-62
2023/02/12 16:46:08;;;;;;;;;;;;;;;7.76;70.76;100099.03;4932580;29;20271;-63
2023/02/12 16:48:37;;;;;;;;;;;;;;;7.63;71.98;100108.09;4933612;29;19922;-62
2023/02/12 16:51:04;;;;;;;;;;;;;;;7.51;72.15;100103.19;4930278;29;19927;-62
2023/02/12 16:53:30;;;;;;;;;;;;;;;7.44;73.04;100112.09;4924206;29;20002;-62
2023/02/12 16:55:55;;;;;;;;;;;;;;;7.32;72.70;100114.09;4933836;29;19954;-62
2023/02/12 16:58:20;;;;;;;;;;;;;;;7.24;73.47;100115.19;4929144;29;20397;-61
2023/02/12 17:00:45;;;;;;;;;;;;;;;7.08;73.56;100114.69;4932483;29;20363;-62
2023/02/12 17:03:11;;;;;;;;;;;;;;;6.97;73.41;100117.56;4934405;29;20009;-63
2023/02/12 17:05:36;;;;;;;;;;;;;;;6.82;73.25;100118.78;4930428;29;19976;-62
2023/02/12 17:08:01;;;;;;;;;;;;;;;6.77;73.75;100120.63;4932647;29;19974;-62
2023/02/12 17:10:27;;;;;;;;;;;;;;;6.77;73.52;100119.75;4933433;29;19927;-62
2023/02/12 17:12:52;;;;;;;;;;;;;;;6.72;73.27;100119.88;4932945;29;19970;-62
2023/02/12 17:15:24;;;;;;;;;;;;;;;6.68;73.95;100117.38;4932073;29;20318;-62
2023/02/12 17:17:49;;;;;;;;;;;;;;;6.56;73.50;100121.94;4932437;29;20009;-63
2023/02/12 17:20:16;;;;;;;;;;;;;;;6.48;73.93;100123.03;4928605;29;19997;-62
2023/02/12 17:22:43;;;;;;;;;;;;;;;6.44;74.56;100121.38;4928106;29;19922;-62
2023/02/12 17:25:08;;;;;;;;;;;;;;;6.34;74.69;100125.91;4932290;29;19923;-62
2023/02/12 17:27:34;;;;;;;;;;;;;;;6.56;76.68;100129.78;4938724;29;20021;-64
2023/02/12 17:29:59;;;;;;;;;;;;;;;6.39;74.10;100124.06;4926222;29;20379;-64
2023/02/12 17:32:24;;;;;;;;;;;;;;;6.32;74.15;100123.31;4932714;29;20856;-64
2023/02/12 17:34:49;;;;;;;;;;;;;;;6.21;74.40;100130.50;4927835;29;20544;-63
2023/02/12 17:37:15;;;;;;;;;;;;;;;6.15;74.72;100130.63;4930002;29;19919;-64
2023/02/12 17:39:40;;;;;;;;;;;;;;;6.08;75.13;100129.88;4931903;29;19982;-64
2023/02/12 17:42:05;;;;;;;;;;;;;;;5.99;75.26;100131.81;4932978;29;19919;-65
2023/02/12 17:44:31;;;;;;;;;;;;;;;5.92;75.21;100131.94;4929142;29;19925;-64
2023/02/12 17:46:57;;;;;;;;;;;;;;;5.84;75.19;100131.19;4926943;29;19954;-64
2023/02/12 17:49:23;;;;;;;;;;;;;;;5.76;75.52;100129.63;4929611;29;19922;-63
2023/02/12 17:51:48;;;;;;;;;;;;;;;5.71;75.48;100132.28;4932465;29;19974;-64
2023/02/12 17:54:16;;;;;;;;;;;;;;;5.59;75.08;100125.56;4917400;29;19919;-63
2023/02/12 17:56:41;;;;;;;;;;;;;;;5.48;76.01;100138.78;4931100;29;20471;-63
2023/02/12 17:59:06;;;;;;;;;;;;;;;5.39;76.14;100138.91;4931273;29;20022;-63
2023/02/12 18:01:34;;;;;;;;;;;;;;;5.36;76.52;100130.31;4924567;29;19962;-63
2023/02/12 18:03:59;;;;;;;;;;;;;;;5.32;76.60;100137.31;4907443;29;19923;-63
2023/02/12 18:06:25;;;;;;;;;;;;;;;5.25;76.33;100135.69;4934576;29;19978;-64
2023/02/12 18:08:50;;;;;;;;;;;;;;;5.21;76.30;100134.88;4927550;29;20401;-64
2023/02/12 18:11:18;;;;;;;;;;;;;;;5.18;76.70;100140.13;4930128;29;19918;-63
2023/02/12 18:13:43;;;;;;;;;;;;;;;5.17;77.29;100142.78;4933992;29;19925;-64
2023/02/12 18:16:08;;;;;;;;;;;;;;;5.11;76.91;100148.91;4929766;29;19998;-63
2023/02/12 18:18:33;;;;;;;;;;;;;;;5.07;76.78;100155.06;4926855;29;20006;-63
2023/02/12 18:20:59;;;;;;;;;;;;;;;5.04;76.99;100149.91;4932999;29;20018;-63
2023/02/12 18:23:24;;;;;;;;;;;;;;;4.93;76.43;100159.59;4932289;29;20302;-64
2023/02/12 18:25:49;;;;;;;;;;;;;;;4.85;76.01;100151.03;4930229;29;20031;-64
2023/02/12 18:28:14;;;;;;;;;;;;;;;4.80;76.52;100152.84;4928666;29;19923;-64
2023/02/12 18:30:41;;;;;;;;;;;;;;;4.65;76.70;100152.19;4925475;29;19919;-64
2023/02/12 18:33:07;;;;;;;;;;;;;;;4.66;77.71;100150.44;4931293;29;20001;-64
2023/02/12 18:35:32;;;;;;;;;;;;;;;4.61;76.92;100149.63;4929628;29;19967;-63
2023/02/12 18:37:57;;;;;;;;;;;;;;;4.76;79.61;100146.84;4931751;29;20385;-63
2023/02/12 18:40:24;;;;;;;;;;;;;;;4.94;81.12;100146.56;4927537;29;19974;-63
2023/02/12 18:42:49;;;;;;;;;;;;;;;5.06;80.43;100147.25;4930660;29;19919;-62
2023/02/12 18:45:14;;;;;;;;;;;;;;;5.24;80.22;100144.41;4929609;29;19926;-63
2023/02/12 18:47:40;;;;;;;;;;;;;;;5.25;78.56;100133.09;4925135;29;19926;-63
2023/02/12 18:50:05;;;;;;;;;;;;;;;5.34;78.73;100129.50;4927494;29;19919;-64
2023/02/12 18:52:30;;;;;;;;;;;;;;;5.37;78.22;100132.91;4932735;29;19919;-65
2023/02/12 18:54:56;;;;;;;;;;;;;;;5.31;77.15;100133.00;4925571;29;20531;-65
2023/02/12 18:57:21;;;;;;;;;;;;;;;5.38;78.65;100132.00;4930933;29;20351;-64
2023/02/12 18:59:46;;;;;;;;;;;;;;;5.42;78.24;100133.66;4932605;29;19919;-65
2023/02/12 19:02:12;;;;;;;;;;;;;;;5.47;78.02;100134.47;4932489;29;19925;-65
2023/02/12 19:04:37;;;;;;;;;;;;;;;5.48;77.69;100128.38;4928792;29;20342;-63
2023/02/12 19:07:02;;;;;;;;;;;;;;;5.54;77.91;100126.53;4930345;29;19919;-63
2023/02/12 19:09:28;;;;;;;;;;;;;;;5.61;78.25;100122.94;4932912;29;19970;-62
2023/02/12 19:11:53;;;;;;;;;;;;;;;5.59;77.27;100124.72;4931009;29;19930;-63
2023/02/12 19:14:19;;;;;;;;;;;;;;;5.57;77.56;100132.53;4927873;29;19926;-63
2023/02/12 19:16:44;;;;;;;;;;;;;;;5.59;77.50;100124.72;4930587;29;20371;-63
2023/02/12 19:19:09;;;;;;;;;;;;;;;5.58;77.77;100125.63;4931982;29;20397;-63
2023/02/12 19:21:35;;;;;;;;;;;;;;;5.67;78.41;100128.03;4937323;29;19914;-63
2023/02/12 19:24:00;;;;;;;;;;;;;;;5.71;78.25;100124.47;4934892;29;19918;-63
2023/02/12 19:26:27;;;;;;;;;;;;;;;5.72;77.63;100131.44;4934885;29;19970;-63
2023/02/12 19:28:53;;;;;;;;;;;;;;;5.75;78.29;100136.59;4931645;29;20307;-63
2023/02/12 19:31:19;;;;;;;;;;;;;;;5.80;78.26;100132.13;4930644;29;19927;-63
2023/02/12 19:33:44;;;;;;;;;;;;;;;5.79;78.21;100127.81;4928448;29;19927;-63
2023/02/12 19:36:10;;;;;;;;;;;;;;;5.80;78.38;100139.94;4930222;29;19925;-64
2023/02/12 19:38:35;;;;;;;;;;;;;;;5.79;78.12;100134.78;4932582;29;20438;-64
2023/02/12 19:41:04;;;;;;;;;;;;;;;5.77;77.81;100140.00;4934401;29;20353;-63
2023/02/12 19:43:29;;;;;;;;;;;;;;;5.69;76.57;100142.75;4934433;29;20357;-63
2023/02/12 19:45:59;;;;;;;;;;;;;;;5.77;77.32;100144.34;4931362;29;20379;-65
2023/02/12 19:48:24;;;;;;;;;;;;;;;5.72;76.80;100144.44;4926608;29;19919;-64
2023/02/12 19:50:50;;;;;;;;;;;;;;;5.58;74.82;100143.84;4934486;29;19951;-64
2023/02/12 19:53:15;;;;;;;;;;;;;;;5.51;77.34;100148.28;4937091;29;19919;-63
2023/02/12 19:55:40;;;;;;;;;;;;;;;5.50;77.24;100143.94;4929269;29;19919;-64
2023/02/12 19:58:08;;;;;;;;;;;;;;;5.53;77.27;100146.50;4931325;29;20407;-62
2023/02/12 20:00:33;;;;;;;;;;;;;;;5.52;77.59;100149.16;4934761;29;20002;-62
2023/02/12 20:02:58;;;;;;;;;;;;;;;5.48;76.87;100143.97;4937053;29;19935;-62
2023/02/12 20:05:23;;;;;;;;;;;;;;;5.53;77.13;100150.84;4934147;29;20401;-63
2023/02/12 20:07:49;;;;;;;;;;;;;;;5.51;77.60;100148.28;4933717;29;20017;-62
2023/02/12 20:10:14;;;;;;;;;;;;;;;5.48;76.66;100143.13;4931112;29;20025;-62
2023/02/12 20:12:40;;;;;;;;;;;;;;;5.51;77.22;100152.63;4933061;29;20009;-62
2023/02/12 20:15:05;;;;;;;;;;;;;;;5.54;77.63;100142.16;4935244;29;20029;-62
2023/02/12 20:17:30;;;;;;;;;;;;;;;5.52;78.14;100150.00;4929302;29;19927;-62
2023/02/12 20:19:55;;;;;;;;;;;;;;;5.54;77.17;100149.97;4933516;29;19919;-62
2023/02/12 20:22:21;;;;;;;;;;;;;;;5.53;77.57;100145.66;4936356;29;19930;-63
2023/02/12 20:24:46;;;;;;;;;;;;;;;5.52;77.48;100149.16;4931942;29;19918;-62
2023/02/12 20:27:11;;;;;;;;;;;;;;;5.54;77.38;100147.34;4940971;29;19932;-62
2023/02/12 20:29:37;;;;;;;;;;;;;;;5.43;75.10;100150.13;4936662;28;19918;-62
2023/02/12 20:32:02;;;;;;;;;;;;;;;5.26;73.71;100147.81;4935051;29;19963;-63
2023/02/12 20:34:27;;;;;;;;;;;;;;;5.22;75.80;100143.53;4932744;29;20450;-63
2023/02/12 20:36:53;;;;;;;;;;;;;;;5.07;74.65;100151.59;4935546;29;19915;-63
2023/02/12 20:39:18;;;;;;;;;;;;;;;5.00;74.83;100143.88;4935928;29;19930;-62
2023/02/12 20:41:43;;;;;;;;;;;;;;;5.05;76.12;100148.16;4929891;29;20439;-63
2023/02/12 20:44:10;;;;;;;;;;;;;;;5.03;75.41;100150.78;4935116;29;19937;-62
2023/02/12 20:46:38;;;;;;;;;;;;;;;4.91;74.83;100151.81;4949534;28;19966;-62
2023/02/12 20:49:03;;;;;;;;;;;;;;;4.78;75.46;100149.41;4936340;29;19918;-62
2023/02/12 20:51:28;;;;;;;;;;;;;;;4.79;75.76;100156.34;4935047;29;19923;-62
2023/02/12 20:53:54;;;;;;;;;;;;;;;4.81;76.03;100159.78;4941518;29;19953;-62
2023/02/12 20:56:27;;;;;;;;;;;;;;;4.74;75.17;100169.41;4935825;28;19970;-62
2023/02/12 20:58:52;;;;;;;;;;;;;;;4.67;76.13;100173.81;4934961;29;19962;-62
2023/02/12 21:01:19;;;;;;;;;;;;;;;4.61;76.52;100173.03;4935211;29;19953;-62
2023/02/12 21:03:45;;;;;;;;;;;;;;;4.61;77.05;100173.03;4941769;29;20009;-62
2023/02/12 21:06:10;;;;;;;;;;;;;;;4.64;76.74;100173.00;4939948;29;19994;-62
2023/02/12 21:08:35;;;;;;;;;;;;;;;4.69;76.95;100172.06;4933977;29;19919;-62
2023/02/12 21:11:01;;;;;;;;;;;;;;;4.69;76.91;100169.47;4945417;29;19976;-62
2023/02/12 21:13:27;;;;;;;;;;;;;;;4.72;77.33;100172.03;4942778;28;19923;-62
2023/02/12 21:15:58;;;;;;;;;;;;;;;4.58;75.44;100168.75;4936360;29;19946;-62
2023/02/12 21:18:25;;;;;;;;;;;;;;;4.51;75.00;100172.31;4927461;29;19919;-62
2023/02/12 21:20:51;;;;;;;;;;;;;;;4.44;76.34;100171.53;4932255;29;20075;-62
2023/02/12 21:23:16;;;;;;;;;;;;;;;4.42;77.42;100162.88;4935965;29;20017;-62
